sensor_id;sensor_type;location;lat;lon;timestamp;pressure;altitude;pressure_sealevel;temperature;humidity
54503;BME280;40411;50.090;21.954;2022-11-02T00:01:17;152098.44;;;12.14;100.00
54503;BME280;40411;50.090;21.954;2022-11-02T00:03:45;152101.03;;;12.15;100.00
54503;BME280;40411;50.090;21.954;2022-11-02T00:06:11;152152.25;;;12.35;100.00
54503;BME280;40411;50.090;21.954;2022-11-02T00:08:37;152159.94;;;12.38;100.00
54503;BME280;40411;50.090;21.954;2022-11-02T00:11:03;152152.25;;;12.35;100.00
54503;BME280;40411;50.090;21.954;2022-11-02T00:13:29;152141.97;;;12.31;100.00
54503;BME280;40411;50.090;21.954;2022-11-02T00:15:55;152159.94;;;12.38;100.00
54503;BME280;40411;50.090;21.954;2022-11-02T00:18:21;152139.44;;;12.30;100.00
54503;BME280;40411;50.090;21.954;2022-11-02T00:20:47;152172.75;;;12.43;100.00
54503;BME280;40411;50.090;21.954;2022-11-02T00:23:13;152183.00;;;12.47;100.00
54503;BME280;40411;50.090;21.954;2022-11-02T00:25:42;152216.31;;;12.61;100.00
54503;BME280;40411;50.090;21.954;2022-11-02T00:28:09;152226.59;;;12.65;100.00
54503;BME280;40411;50.090;21.954;2022-11-02T00:30:36;152220.19;;;12.62;100.00
54503;BME280;40411;50.090;21.954;2022-11-02T00:33:02;152245.78;;;12.72;100.00
54503;BME280;40411;50.090;21.954;2022-11-02T00:35:28;152220.19;;;12.62;100.00
54503;BME280;40411;50.090;21.954;2022-11-02T00:37:55;152198.34;;;12.53;100.00
54503;BME280;40411;50.090;21.954;2022-11-02T00:40:20;152192.00;;;12.51;100.00
54503;BME280;40411;50.090;21.954;2022-11-02T00:42:46;152207.34;;;12.57;100.00
54503;BME280;40411;50.090;21.954;2022-11-02T00:45:12;152203.50;;;12.56;100.00
54503;BME280;40411;50.090;21.954;2022-11-02T00:47:38;152227.88;;;12.65;100.00
54503;BME280;40411;50.090;21.954;2022-11-02T00:50:05;152230.41;;;12.66;100.00
54503;BME280;40411;50.090;21.954;2022-11-02T00:52:34;152257.34;;;12.77;100.00
54503;BME280;40411;50.090;21.954;2022-11-02T00:55:00;152232.97;;;12.67;100.00
54503;BME280;40411;50.090;21.954;2022-11-02T00:57:27;152259.88;;;12.78;100.00
54503;BME280;40411;50.090;21.954;2022-11-02T00:59:53;152265.03;;;12.80;100.00
54503;BME280;40411;50.090;21.954;2022-11-02T01:02:19;152236.81;;;12.69;100.00
54503;BME280;40411;50.090;21.954;2022-11-02T01:04:45;152289.41;;;12.90;100.00
54503;BME280;40411;50.090;21.954;2022-11-02T01:07:12;152297.09;;;12.93;100.00
54503;BME280;40411;50.090;21.954;2022-11-02T01:09:37;152295.75;;;12.92;100.00
54503;BME280;40411;50.090;21.954;2022-11-02T01:12:04;152272.69;;;12.83;100.00
54503;BME280;40411;50.090;21.954;2022-11-02T01:14:30;152248.38;;;12.73;100.00
54503;BME280;40411;50.090;21.954;2022-11-02T01:16:56;152270.16;;;12.82;100.00
54503;BME280;40411;50.090;21.954;2022-11-02T01:19:23;152294.50;;;12.92;100.00
54503;BME280;40411;50.090;21.954;2022-11-02T01:21:49;152277.84;;;12.85;100.00
54503;BME280;40411;50.090;21.954;2022-11-02T01:24:15;152234.28;;;12.68;100.00
54503;BME280;40411;50.090;21.954;2022-11-02T01:26:41;152206.09;;;12.57;100.00
54503;BME280;40411;50.090;21.954;2022-11-02T01:29:09;152198.34;;;12.53;100.00
54503;BME280;40411;50.090;21.954;2022-11-02T01:31:35;152180.44;;;12.46;100.00
54503;BME280;40411;50.090;21.954;2022-11-02T01:34:02;152172.75;;;12.43;100.00
54503;BME280;40411;50.090;21.954;2022-11-02T01:36:28;152188.13;;;12.49;100.00
54503;BME280;40411;50.090;21.954;2022-11-02T01:38:54;152221.47;;;12.63;100.00
54503;BME280;40411;50.090;21.954;2022-11-02T01:41:20;152203.50;;;12.56;100.00
54503;BME280;40411;50.090;21.954;2022-11-02T01:43:51;152183.00;;;12.47;100.00
54503;BME280;40411;50.090;21.954;2022-11-02T01:46:25;152170.16;;;12.42;100.00
54503;BME280;40411;50.090;21.954;2022-11-02T01:48:59;152135.56;;;12.28;100.00
54503;BME280;40411;50.090;21.954;2022-11-02T01:51:37;152177.91;;;12.45;100.00
54503;BME280;40411;50.090;21.954;2022-11-02T01:54:12;152175.31;;;12.44;100.00
54503;BME280;40411;50.090;21.954;2022-11-02T01:56:41;152221.47;;;12.63;100.00
54503;BME280;40411;50.090;21.954;2022-11-02T01:59:12;152195.81;;;12.52;100.00
54503;BME280;40411;50.090;21.954;2022-11-02T02:01:39;152204.78;;;12.56;100.00
54503;BME280;40411;50.090;21.954;2022-11-02T02:04:05;152221.47;;;12.63;100.00
54503;BME280;40411;50.090;21.954;2022-11-02T02:06:36;152230.41;;;12.66;100.00
54503;BME280;40411;50.090;21.954;2022-11-02T02:09:05;152213.78;;;12.60;100.00
54503;BME280;40411;50.090;21.954;2022-11-02T02:11:37;152236.81;;;12.69;100.00
54503;BME280;40411;50.090;21.954;2022-11-02T02:14:15;152234.28;;;12.68;100.00
54503;BME280;40411;50.090;21.954;2022-11-02T02:19:52;152185.59;;;12.48;100.00
54503;BME280;40411;50.090;21.954;2022-11-02T02:22:26;152170.16;;;12.42;100.00
54503;BME280;40411;50.090;21.954;2022-11-02T02:30:55;152111.25;;;12.19;100.00
54503;BME280;40411;50.090;21.954;2022-11-02T02:33:31;152152.25;;;12.35;100.00
54503;BME280;40411;50.090;21.954;2022-11-02T02:36:23;152154.81;;;12.36;100.00
54503;BME280;40411;50.090;21.954;2022-11-02T02:39:12;152144.56;;;12.32;100.00
54503;BME280;40411;50.090;21.954;2022-11-02T02:41:57;152170.16;;;12.42;100.00
54503;BME280;40411;50.090;21.954;2022-11-02T02:44:30;152184.25;;;12.48;100.00
54503;BME280;40411;50.090;21.954;2022-11-02T02:47:08;152181.72;;;12.47;100.00
54503;BME280;40411;50.090;21.954;2022-11-02T02:49:43;152193.25;;;12.51;100.00
54503;BME280;40411;50.090;21.954;2022-11-02T02:52:11;152186.84;;;12.49;100.00
54503;BME280;40411;50.090;21.954;2022-11-02T02:54:42;152176.56;;;12.45;100.00
54503;BME280;40411;50.090;21.954;2022-11-02T02:57:16;152185.59;;;12.48;100.00
54503;BME280;40411;50.090;21.954;2022-11-02T02:59:44;152170.16;;;12.42;100.00
54503;BME280;40411;50.090;21.954;2022-11-02T03:02:33;152171.47;;;12.43;100.00
54503;BME280;40411;50.090;21.954;2022-11-02T03:05:01;152153.53;;;12.36;100.00
54503;BME280;40411;50.090;21.954;2022-11-02T03:07:32;152189.41;;;12.50;100.00
54503;BME280;40411;50.090;21.954;2022-11-02T03:10:15;152154.81;;;12.36;100.00
54503;BME280;40411;50.090;21.954;2022-11-02T03:20:59;152206.09;;;12.57;100.00
54503;BME280;40411;50.090;21.954;2022-11-02T03:26:17;152247.06;;;12.73;100.00
54503;BME280;40411;50.090;21.954;2022-11-02T03:29:35;152248.38;;;12.73;100.00
54503;BME280;40411;50.090;21.954;2022-11-02T03:32:09;152247.06;;;12.73;100.00
54503;BME280;40411;50.090;21.954;2022-11-02T03:34:45;152231.69;;;12.67;100.00
54503;BME280;40411;50.090;21.954;2022-11-02T03:37:45;152259.88;;;12.78;100.00
54503;BME280;40411;50.090;21.954;2022-11-02T03:40:23;152244.50;;;12.72;100.00
54503;BME280;40411;50.090;21.954;2022-11-02T03:42:52;152308.59;;;12.97;100.00
54503;BME280;40411;50.090;21.954;2022-11-02T03:45:22;152308.59;;;12.97;100.00
54503;BME280;40411;50.090;21.954;2022-11-02T03:47:59;152239.38;;;12.70;100.00
54503;BME280;40411;50.090;21.954;2022-11-02T03:50:28;152275.31;;;12.84;100.00
54503;BME280;40411;50.090;21.954;2022-11-02T03:53:08;152297.09;;;12.93;100.00
54503;BME280;40411;50.090;21.954;2022-11-02T03:55:40;152312.47;;;12.99;100.00
54503;BME280;40411;50.090;21.954;2022-11-02T03:58:09;152348.34;;;13.13;100.00
54503;BME280;40411;50.090;21.954;2022-11-02T04:00:37;152383.00;;;13.27;100.00
54503;BME280;40411;50.090;21.954;2022-11-02T04:03:11;152367.59;;;13.21;100.00
54503;BME280;40411;50.090;21.954;2022-11-02T04:05:41;152335.50;;;13.08;100.00
54503;BME280;40411;50.090;21.954;2022-11-02T04:08:38;152357.31;;;13.17;100.00
54503;BME280;40411;50.090;21.954;2022-11-02T04:11:07;152331.69;;;13.07;100.00
54503;BME280;40411;50.090;21.954;2022-11-02T04:13:56;152295.75;;;12.92;100.00
54503;BME280;40411;50.090;21.954;2022-11-02T04:16:42;152290.66;;;12.90;100.00
54503;BME280;40411;50.090;21.954;2022-11-02T04:19:25;152294.50;;;12.92;100.00
54503;BME280;40411;50.090;21.954;2022-11-02T04:21:58;152323.97;;;13.04;100.00
54503;BME280;40411;50.090;21.954;2022-11-02T04:24:46;152334.25;;;13.08;100.00
54503;BME280;40411;50.090;21.954;2022-11-02T04:27:32;152353.47;;;13.15;100.00
54503;BME280;40411;50.090;21.954;2022-11-02T04:29:58;152352.22;;;13.15;100.00
54503;BME280;40411;50.090;21.954;2022-11-02T04:32:27;152383.00;;;13.27;100.00
54503;BME280;40411;50.090;21.954;2022-11-02T04:35:15;152326.56;;;13.05;100.00
54503;BME280;40411;50.090;21.954;2022-11-02T04:37:43;152330.38;;;13.06;100.00
54503;BME280;40411;50.090;21.954;2022-11-02T04:40:32;152326.56;;;13.05;100.00
54503;BME280;40411;50.090;21.954;2022-11-02T04:42:58;152318.88;;;13.02;100.00
54503;BME280;40411;50.090;21.954;2022-11-02T04:45:24;152322.69;;;13.03;100.00
54503;BME280;40411;50.090;21.954;2022-11-02T04:47:51;152315.00;;;13.00;100.00
54503;BME280;40411;50.090;21.954;2022-11-02T04:50:18;152313.72;;;13.00;100.00
54503;BME280;40411;50.090;21.954;2022-11-02T04:52:44;152339.38;;;13.10;100.00
54503;BME280;40411;50.090;21.954;2022-11-02T04:55:09;152306.03;;;12.96;100.00
54503;BME280;40411;50.090;21.954;2022-11-02T04:57:37;152318.88;;;13.02;100.00
54503;BME280;40411;50.090;21.954;2022-11-02T05:00:04;152329.09;;;13.06;100.00
54503;BME280;40411;50.090;21.954;2022-11-02T05:02:32;152327.81;;;13.05;100.00
54503;BME280;40411;50.090;21.954;2022-11-02T05:04:58;152313.72;;;13.00;100.00
54503;BME280;40411;50.090;21.954;2022-11-02T05:07:25;152339.38;;;13.10;100.00
54503;BME280;40411;50.090;21.954;2022-11-02T05:09:51;152303.50;;;12.95;100.00
54503;BME280;40411;50.090;21.954;2022-11-02T05:12:17;152306.03;;;12.96;100.00
54503;BME280;40411;50.090;21.954;2022-11-02T05:14:42;152284.25;;;12.88;100.00
54503;BME280;40411;50.090;21.954;2022-11-02T05:17:08;152285.53;;;12.88;100.00
54503;BME280;40411;50.090;21.954;2022-11-02T05:19:36;152277.84;;;12.85;100.00
54503;BME280;40411;50.090;21.954;2022-11-02T05:22:03;152306.03;;;12.96;100.00
54503;BME280;40411;50.090;21.954;2022-11-02T05:24:29;152254.78;;;12.76;100.00
54503;BME280;40411;50.090;21.954;2022-11-02T05:26:55;152281.66;;;12.87;100.00
54503;BME280;40411;50.090;21.954;2022-11-02T05:29:25;152290.66;;;12.90;100.00
54503;BME280;40411;50.090;21.954;2022-11-02T05:31:51;152284.25;;;12.88;100.00
54503;BME280;40411;50.090;21.954;2022-11-02T05:34:18;152293.22;;;12.91;100.00
54503;BME280;40411;50.090;21.954;2022-11-02T05:36:46;152281.66;;;12.87;100.00
54503;BME280;40411;50.090;21.954;2022-11-02T05:39:13;152339.38;;;13.10;100.00
54503;BME280;40411;50.090;21.954;2022-11-02T05:41:39;152295.75;;;12.92;100.00
54503;BME280;40411;50.090;21.954;2022-11-02T05:44:06;152312.47;;;12.99;100.00
54503;BME280;40411;50.090;21.954;2022-11-02T05:46:33;152344.47;;;13.12;100.00
54503;BME280;40411;50.090;21.954;2022-11-02T05:48:59;152313.72;;;13.00;100.00
54503;BME280;40411;50.090;21.954;2022-11-02T05:51:24;152331.69;;;13.07;100.00
54503;BME280;40411;50.090;21.954;2022-11-02T05:53:50;152345.78;;;13.12;100.00
54503;BME280;40411;50.090;21.954;2022-11-02T05:56:16;152331.69;;;13.07;100.00
54503;BME280;40411;50.090;21.954;2022-11-02T05:58:42;152359.91;;;13.18;100.00
54503;BME280;40411;50.090;21.954;2022-11-02T06:01:09;152344.47;;;13.12;100.00
54503;BME280;40411;50.090;21.954;2022-11-02T06:03:35;152340.66;;;13.10;100.00
54503;BME280;40411;50.090;21.954;2022-11-02T06:06:03;152352.22;;;13.15;100.00
54503;BME280;40411;50.090;21.954;2022-11-02T06:08:34;152347.06;;;13.13;100.00
54503;BME280;40411;50.090;21.954;2022-11-02T06:11:08;152344.47;;;13.12;100.00
54503;BME280;40411;50.090;21.954;2022-11-02T06:13:35;152365.00;;;13.20;100.00
54503;BME280;40411;50.090;21.954;2022-11-02T06:16:02;152416.34;;;13.40;100.00
54503;BME280;40411;50.090;21.954;2022-11-02T06:18:28;152336.78;;;13.09;100.00
54503;BME280;40411;50.090;21.954;2022-11-02T06:20:59;152338.09;;;13.09;100.00
54503;BME280;40411;50.090;21.954;2022-11-02T06:23:25;152344.47;;;13.12;100.00
54503;BME280;40411;50.090;21.954;2022-11-02T06:25:53;152375.28;;;13.24;100.00
54503;BME280;40411;50.090;21.954;2022-11-02T06:28:19;152407.34;;;13.37;100.00
54503;BME280;40411;50.090;21.954;2022-11-02T06:30:46;152408.66;;;13.37;100.00
54503;BME280;40411;50.090;21.954;2022-11-02T06:33:12;152379.16;;;13.26;100.00
54503;BME280;40411;50.090;21.954;2022-11-02T06:35:37;152449.66;;;13.54;100.00
54503;BME280;40411;50.090;21.954;2022-11-02T06:38:03;152457.41;;;13.57;100.00
54503;BME280;40411;50.090;21.954;2022-11-02T06:40:29;152493.28;;;13.71;100.00
54503;BME280;40411;50.090;21.954;2022-11-02T06:42:56;152475.31;;;13.64;100.00
54503;BME280;40411;50.090;21.954;2022-11-02T06:45:22;152549.72;;;13.94;100.00
54503;BME280;40411;50.090;21.954;2022-11-02T06:47:48;152517.63;;;13.81;100.00
54503;BME280;40411;50.090;21.954;2022-11-02T06:50:14;152468.91;;;13.61;100.00
54503;BME280;40411;50.090;21.954;2022-11-02T06:52:44;152493.28;;;13.71;100.00
54503;BME280;40411;50.090;21.954;2022-11-02T06:55:11;152545.84;;;13.92;100.00
54503;BME280;40411;50.090;21.954;2022-11-02T06:57:38;152585.63;;;14.08;100.00
54503;BME280;40411;50.090;21.954;2022-11-02T07:00:06;152608.72;;;14.17;100.00
54503;BME280;40411;50.090;21.954;2022-11-02T07:02:33;152653.63;;;14.35;100.00
54503;BME280;40411;50.090;21.954;2022-11-02T07:04:59;152590.78;;;14.10;100.00
54503;BME280;40411;50.090;21.954;2022-11-02T07:07:25;152619.00;;;14.21;100.00
54503;BME280;40411;50.090;21.954;2022-11-02T07:09:50;152622.81;;;14.23;100.00
54503;BME280;40411;50.090;21.954;2022-11-02T07:12:16;152629.25;;;14.25;100.00
54503;BME280;40411;50.090;21.954;2022-11-02T07:14:42;152619.00;;;14.21;100.00
54503;BME280;40411;50.090;21.954;2022-11-02T07:17:08;152619.00;;;14.21;100.00
54503;BME280;40411;50.090;21.954;2022-11-02T07:19:35;152631.84;;;14.26;100.00
54503;BME280;40411;50.090;21.954;2022-11-02T07:22:00;152672.84;;;14.43;100.00
54503;BME280;40411;50.090;21.954;2022-11-02T07:24:26;152744.78;;;14.71;100.00
54503;BME280;40411;50.090;21.954;2022-11-02T07:26:52;152747.34;;;14.72;100.00
54503;BME280;40411;50.090;21.954;2022-11-02T07:29:18;152699.84;;;14.53;100.00
54503;BME280;40411;50.090;21.954;2022-11-02T07:31:44;152725.53;;;14.64;100.00
54503;BME280;40411;50.090;21.954;2022-11-02T07:34:11;152755.03;;;14.75;100.00
54503;BME280;40411;50.090;21.954;2022-11-02T07:36:37;152757.63;;;14.77;100.00
54503;BME280;40411;50.090;21.954;2022-11-02T07:39:03;152694.69;;;14.51;100.00
54503;BME280;40411;50.090;21.954;2022-11-02T07:41:28;152764.00;;;14.79;100.00
54503;BME280;40411;50.090;21.954;2022-11-02T07:43:54;152760.19;;;14.78;100.00
54503;BME280;40411;50.090;21.954;2022-11-02T07:46:34;152887.25;;;15.28;100.00
54503;BME280;40411;50.090;21.954;2022-11-02T07:49:00;152806.41;;;14.96;100.00
54503;BME280;40411;50.090;21.954;2022-11-02T07:51:27;152928.34;;;15.45;100.00
54503;BME280;40411;50.090;21.954;2022-11-02T07:53:52;153289.41;;;16.88;100.00
54503;BME280;40411;50.090;21.954;2022-11-02T07:56:18;153185.25;;;16.47;100.00
54503;BME280;40411;50.090;21.954;2022-11-02T07:58:44;153054.22;;;15.95;100.00
54503;BME280;40411;50.090;21.954;2022-11-02T08:01:11;153070.91;;;16.01;100.00
54503;BME280;40411;50.090;21.954;2022-11-02T08:03:36;153060.66;;;15.97;100.00
54503;BME280;40411;50.090;21.954;2022-11-02T08:06:02;153037.56;;;15.88;100.00
54503;BME280;40411;50.090;21.954;2022-11-02T08:08:28;153158.28;;;16.36;100.00
54503;BME280;40411;50.090;21.954;2022-11-02T08:10:54;153540.06;;;17.88;100.00
54503;BME280;40411;50.090;21.954;2022-11-02T08:13:22;153569.69;;;18.00;100.00
54503;BME280;40411;50.090;21.954;2022-11-02T08:15:49;153630.09;;;18.24;100.00
54503;BME280;40411;50.090;21.954;2022-11-02T08:18:18;153749.72;;;18.71;100.00
54503;BME280;40411;50.090;21.954;2022-11-02T08:20:44;153583.84;;;18.05;100.00
54503;BME280;40411;50.090;21.954;2022-11-02T08:23:11;153522.09;;;17.81;100.00
54503;BME280;40411;50.090;21.954;2022-11-02T08:25:37;153693.13;;;18.49;100.00
54503;BME280;40411;50.090;21.954;2022-11-02T08:28:05;153760.09;;;18.75;100.00
54503;BME280;40411;50.090;21.954;2022-11-02T08:30:31;153985.31;;;19.65;100.00
54503;BME280;40411;50.090;21.954;2022-11-02T08:33:06;154297.00;;;20.89;100.00
54503;BME280;40411;50.090;21.954;2022-11-02T08:35:33;154084.47;;;20.04;100.00
54503;BME280;40411;50.090;21.954;2022-11-02T08:37:59;154208.16;;;20.53;100.00
54503;BME280;40411;50.090;21.954;2022-11-02T08:40:25;154134.69;;;20.24;100.00
54503;BME280;40411;50.090;21.954;2022-11-02T08:42:59;153857.88;;;19.14;100.00
54503;BME280;40411;50.090;21.954;2022-11-02T08:45:25;154087.03;;;20.05;100.00
54503;BME280;40411;50.090;21.954;2022-11-02T08:47:51;153883.59;;;19.25;100.00
54503;BME280;40411;50.090;21.954;2022-11-02T08:50:17;154065.16;;;19.97;100.00
54503;BME280;40411;50.090;21.954;2022-11-02T08:52:43;154057.44;;;19.94;100.00
54503;BME280;40411;50.090;21.954;2022-11-02T08:55:08;154217.16;;;20.57;100.00
54503;BME280;40411;50.090;21.954;2022-11-02T08:57:49;154195.22;;;20.48;100.00
54503;BME280;40411;50.090;21.954;2022-11-02T09:00:17;154249.38;;;20.70;100.00
54503;BME280;40411;50.090;21.954;2022-11-02T09:02:43;154539.31;;;21.85;96.00
54503;BME280;40411;50.090;21.954;2022-11-02T09:05:09;154628.28;;;22.20;93.89
54503;BME280;40411;50.090;21.954;2022-11-02T09:07:36;154102.50;;;20.12;96.47
54503;BME280;40411;50.090;21.954;2022-11-02T09:10:02;154403.97;;;21.31;92.66
54503;BME280;40411;50.090;21.954;2022-11-02T09:12:28;154450.38;;;21.50;91.11
54503;BME280;40411;50.090;21.954;2022-11-02T09:14:54;154570.25;;;21.97;89.51
54503;BME280;40411;50.090;21.954;2022-11-02T09:17:20;154736.59;;;22.63;86.77
54503;BME280;40411;50.090;21.954;2022-11-02T09:19:45;154813.97;;;22.94;86.85
54503;BME280;40411;50.090;21.954;2022-11-02T09:22:11;154311.19;;;20.94;92.59
54503;BME280;40411;50.090;21.954;2022-11-02T09:24:37;154092.19;;;20.07;95.95
54503;BME280;40411;50.090;21.954;2022-11-02T09:27:03;153801.28;;;18.92;100.00
54503;BME280;40411;50.090;21.954;2022-11-02T09:29:29;154063.88;;;19.96;99.78
54503;BME280;40411;50.090;21.954;2022-11-02T09:31:54;154388.47;;;21.25;92.49
54503;BME280;40411;50.090;21.954;2022-11-02T09:34:20;154355.00;;;21.12;91.24
54503;BME280;40411;50.090;21.954;2022-11-02T09:36:46;154592.16;;;22.06;89.84
54503;BME280;40411;50.090;21.954;2022-11-02T09:39:12;154587.03;;;22.04;87.46
54503;BME280;40411;50.090;21.954;2022-11-02T09:41:50;154788.19;;;22.84;84.95
54503;BME280;40411;50.090;21.954;2022-11-02T09:44:29;154645.06;;;22.27;84.83
54503;BME280;40411;50.090;21.954;2022-11-02T09:47:01;154715.97;;;22.55;84.39
54503;BME280;40411;50.090;21.954;2022-11-02T09:49:28;154875.94;;;23.18;83.19
54503;BME280;40411;50.090;21.954;2022-11-02T09:51:57;154803.63;;;22.90;83.87
54503;BME280;40411;50.090;21.954;2022-11-02T09:54:24;154839.84;;;23.04;84.33
54503;BME280;40411;50.090;21.954;2022-11-02T09:56:56;154434.94;;;21.44;88.81
54503;BME280;40411;50.090;21.954;2022-11-02T09:59:25;154683.72;;;22.42;86.32
54503;BME280;40411;50.090;21.954;2022-11-02T10:10:13;154277.72;;;20.81;94.17
54503;BME280;40411;50.090;21.954;2022-11-02T10:12:57;154293.16;;;20.87;91.04
54503;BME280;40411;50.090;21.954;2022-11-02T10:18:02;154318.91;;;20.97;89.33
54503;BME280;40411;50.090;21.954;2022-11-02T10:20:35;154407.81;;;21.33;88.84
54503;BME280;40411;50.090;21.954;2022-11-02T10:23:07;154324.06;;;21.00;88.22
54503;BME280;40411;50.090;21.954;2022-11-02T10:25:34;154361.41;;;21.14;87.47
54503;BME280;40411;50.090;21.954;2022-11-02T10:28:14;154255.78;;;20.72;91.31
54503;BME280;40411;50.090;21.954;2022-11-02T10:30:43;154367.84;;;21.17;87.21
54503;BME280;40411;50.090;21.954;2022-11-02T10:33:15;154434.94;;;21.44;86.73
54503;BME280;40411;50.090;21.954;2022-11-02T10:39:25;154434.94;;;21.44;85.10
54503;BME280;40411;50.090;21.954;2022-11-02T10:41:57;154534.16;;;21.83;85.03
54503;BME280;40411;50.090;21.954;2022-11-02T10:47:21;154659.25;;;22.33;79.65
54503;BME280;40411;50.090;21.954;2022-11-02T10:49:55;154467.16;;;21.56;80.41
54503;BME280;40411;50.090;21.954;2022-11-02T10:52:34;154472.28;;;21.58;79.48
54503;BME280;40411;50.090;21.954;2022-11-02T10:55:03;154544.50;;;21.87;80.11
54503;BME280;40411;50.090;21.954;2022-11-02T10:57:31;154446.53;;;21.48;79.78
54503;BME280;40411;50.090;21.954;2022-11-02T11:03:16;154393.63;;;21.27;81.51
54503;BME280;40411;50.090;21.954;2022-11-02T11:11:12;154013.66;;;19.76;86.28
54503;BME280;40411;50.090;21.954;2022-11-02T11:13:40;154062.59;;;19.96;86.62
54503;BME280;40411;50.090;21.954;2022-11-02T11:16:07;154128.25;;;20.22;85.38
54503;BME280;40411;50.090;21.954;2022-11-02T11:18:36;154166.91;;;20.37;86.37
54503;BME280;40411;50.090;21.954;2022-11-02T11:21:02;154340.84;;;21.06;83.42
54503;BME280;40411;50.090;21.954;2022-11-02T11:23:28;154349.84;;;21.10;82.80
54503;BME280;40411;50.090;21.954;2022-11-02T11:26:03;154303.44;;;20.91;84.12
54503;BME280;40411;50.090;21.954;2022-11-02T11:33:44;153882.31;;;19.24;90.57
54503;BME280;40411;50.090;21.954;2022-11-02T11:36:19;153716.28;;;18.58;95.44
54503;BME280;40411;50.090;21.954;2022-11-02T11:38:48;153915.78;;;19.37;91.27
54503;BME280;40411;50.090;21.954;2022-11-02T11:41:15;153908.06;;;19.34;93.66
54503;BME280;40411;50.090;21.954;2022-11-02T11:43:43;153932.50;;;19.44;92.54
54503;BME280;40411;50.090;21.954;2022-11-02T11:46:12;153881.03;;;19.24;91.82
54503;BME280;40411;50.090;21.954;2022-11-02T11:48:39;153911.91;;;19.36;92.28
54503;BME280;40411;50.090;21.954;2022-11-02T11:54:05;153724.03;;;18.61;94.74
54503;BME280;40411;50.090;21.954;2022-11-02T11:56:32;153605.69;;;18.14;98.64
54503;BME280;40411;50.090;21.954;2022-11-02T11:58:58;153775.53;;;18.82;94.71
54503;BME280;40411;50.090;21.954;2022-11-02T12:01:24;154008.50;;;19.74;90.40
54503;BME280;40411;50.090;21.954;2022-11-02T12:03:50;153819.25;;;18.99;93.10
54503;BME280;40411;50.090;21.954;2022-11-02T12:12:57;153432.06;;;17.45;99.26
54503;BME280;40411;50.090;21.954;2022-11-02T12:15:12;153348.50;;;17.12;100.00
54503;BME280;40411;50.090;21.954;2022-11-02T12:42:37;153920.94;;;19.39;88.62
54503;BME280;40411;50.090;21.954;2022-11-02T12:45:32;153892.63;;;19.28;89.25
54503;BME280;40411;50.090;21.954;2022-11-02T12:48:03;153860.44;;;19.15;86.47
54503;BME280;40411;50.090;21.954;2022-11-02T12:56:02;153661.00;;;18.36;91.64
54503;BME280;40411;50.090;21.954;2022-11-02T12:58:34;153507.91;;;17.75;93.18
54503;BME280;40411;50.090;21.954;2022-11-02T13:01:10;153423.06;;;17.41;94.77
54503;BME280;40411;50.090;21.954;2022-11-02T13:03:48;153345.94;;;17.11;96.38
54503;BME280;40411;50.090;21.954;2022-11-02T13:06:20;153295.78;;;16.91;98.53
54503;BME280;40411;50.090;21.954;2022-11-02T13:09:01;153356.19;;;17.15;96.39
54503;BME280;40411;50.090;21.954;2022-11-02T13:11:34;153462.88;;;17.57;95.07
54503;BME280;40411;50.090;21.954;2022-11-02T13:14:03;153572.25;;;18.01;95.79
54503;BME280;40411;50.090;21.954;2022-11-02T13:19:42;153636.53;;;18.26;90.07
54503;BME280;40411;50.090;21.954;2022-11-02T13:22:11;153641.69;;;18.28;91.84
54503;BME280;40411;50.090;21.954;2022-11-02T13:24:42;153532.38;;;17.85;91.43
54503;BME280;40411;50.090;21.954;2022-11-02T13:27:24;153456.44;;;17.55;93.24
54503;BME280;40411;50.090;21.954;2022-11-02T13:29:54;153412.75;;;17.37;94.29
54503;BME280;40411;50.090;21.954;2022-11-02T13:32:41;153392.19;;;17.29;96.09
54503;BME280;40411;50.090;21.954;2022-11-02T13:35:16;153358.75;;;17.16;95.70
54503;BME280;40411;50.090;21.954;2022-11-02T13:37:50;153321.50;;;17.01;97.45
54503;BME280;40411;50.090;21.954;2022-11-02T13:40:41;153300.94;;;16.93;98.05
54503;BME280;40411;50.090;21.954;2022-11-02T13:45:56;153342.06;;;17.09;97.99
54503;BME280;40411;50.090;21.954;2022-11-02T13:50:59;153267.50;;;16.80;98.77
54503;BME280;40411;50.090;21.954;2022-11-02T13:53:33;153275.25;;;16.83;98.17
54503;BME280;40411;50.090;21.954;2022-11-02T13:56:07;153281.66;;;16.85;98.31
54503;BME280;40411;50.090;21.954;2022-11-02T13:58:36;153239.19;;;16.68;98.26
54503;BME280;40411;50.090;21.954;2022-11-02T14:01:05;153218.63;;;16.60;99.14
54503;BME280;40411;50.090;21.954;2022-11-02T14:06:14;153178.84;;;16.44;98.94
54503;BME280;40411;50.090;21.954;2022-11-02T14:09:00;153150.56;;;16.33;99.46
54503;BME280;40411;50.090;21.954;2022-11-02T14:11:44;153130.03;;;16.25;99.08
54503;BME280;40411;50.090;21.954;2022-11-02T14:40:00;152907.78;;;15.36;100.00
54503;BME280;40411;50.090;21.954;2022-11-02T14:42:46;152859.00;;;15.17;100.00
54503;BME280;40411;50.090;21.954;2022-11-02T14:47:40;152780.72;;;14.86;100.00
54503;BME280;40411;50.090;21.954;2022-11-02T14:50:14;152737.09;;;14.68;100.00
54503;BME280;40411;50.090;21.954;2022-11-02T14:52:42;152707.53;;;14.57;100.00
54503;BME280;40411;50.090;21.954;2022-11-02T14:58:14;152585.63;;;14.08;100.00
54503;BME280;40411;50.090;21.954;2022-11-02T15:08:58;152420.19;;;13.42;100.00